Time;durP1;ratioP1;P1;durP2;ratioP2;P2;SDS_P1;SDS_P2;PMS_P1;PMS_P2;Temp;Humidity;BMP_temperature;BMP_pressure;BME280_temperature;BME280_humidity;BME280_pressure;Samples;Min_cycle;Max_cycle;Signal;HPM_P1;HPM_P2
2022/08/21 00:01:31;;;;;;;;;;;;;;;24.80;65.37;101097.16;4999622;28;4485;-63
2022/08/21 00:03:58;;;;;;;;;;;;;;;24.80;65.50;101099.31;4998832;28;4249;-62
2022/08/21 00:06:24;;;;;;;;;;;;;;;24.80;65.31;101100.06;4999362;28;4130;-62
2022/08/21 00:08:51;;;;;;;;;;;;;;;24.80;65.25;101102.22;4998987;28;4203;-62
2022/08/21 00:11:17;;;;;;;;;;;;;;;24.81;65.21;101100.81;5000546;28;4398;-61
2022/08/21 00:13:43;;;;;;;;;;;;;;;24.81;65.44;101092.84;5000561;28;5389;-61
2022/08/21 00:16:10;;;;;;;;;;;;;;;24.81;65.60;101100.81;5001291;28;4235;-62
2022/08/21 00:18:37;;;;;;;;;;;;;;;24.81;65.71;101092.84;4999869;28;4208;-61
2022/08/21 00:21:03;;;;;;;;;;;;;;;24.81;65.68;101101.56;5001241;28;4136;-62
2022/08/21 00:23:30;;;;;;;;;;;;;;;24.82;65.78;101099.38;5000632;28;4418;-62
2022/08/21 00:25:56;;;;;;;;;;;;;;;24.81;65.76;101097.91;5000140;28;4121;-62
2022/08/21 00:28:22;;;;;;;;;;;;;;;24.80;65.90;101099.31;4999783;28;4414;-63
2022/08/21 00:30:49;;;;;;;;;;;;;;;24.81;65.72;101100.81;4999617;28;5325;-62
2022/08/21 00:33:15;;;;;;;;;;;;;;;24.80;65.54;101097.16;4999633;28;4422;-62
2022/08/21 00:35:42;;;;;;;;;;;;;;;24.80;65.69;101099.31;5000218;28;4510;-62
2022/08/21 00:38:08;;;;;;;;;;;;;;;24.79;65.80;101101.47;5000342;28;4196;-61
2022/08/21 00:40:54;;;;;;;;;;;;;;;24.80;65.64;101105.09;4998826;28;4581;-62
2022/08/21 00:43:24;;;;;;;;;;;;;;;24.80;65.64;101102.22;4999425;28;6019;-62
2022/08/21 00:45:50;;;;;;;;;;;;;;;24.80;65.72;101100.06;4999778;28;4190;-62
2022/08/21 00:48:17;;;;;;;;;;;;;;;24.79;65.64;101106.53;5000421;28;4208;-62
2022/08/21 00:50:51;;;;;;;;;;;;;;;24.79;65.55;101106.53;4999693;28;5766;-62
2022/08/21 00:53:17;;;;;;;;;;;;;;;24.79;65.63;101100.75;4999298;28;4197;-62
2022/08/21 00:55:43;;;;;;;;;;;;;;;24.80;65.57;101096.41;4999251;28;4281;-62
2022/08/21 00:58:10;;;;;;;;;;;;;;;24.79;65.55;101095.69;4999132;28;4259;-62
2022/08/21 01:00:38;;;;;;;;;;;;;;;24.79;65.64;101092.78;4997451;28;4197;-62
2022/08/21 01:03:09;;;;;;;;;;;;;;;24.80;65.34;101096.41;5001316;28;4324;-62
2022/08/21 01:05:36;;;;;;;;;;;;;;;24.80;65.45;101090.63;4999391;28;4233;-62
2022/08/21 01:08:02;;;;;;;;;;;;;;;24.79;65.50;101089.16;5001215;28;5366;-63
2022/08/21 01:10:28;;;;;;;;;;;;;;;24.79;65.48;101084.09;5000036;28;5473;-62
2022/08/21 01:12:55;;;;;;;;;;;;;;;24.81;65.31;101092.84;5000508;28;4220;-62
2022/08/21 01:15:22;;;;;;;;;;;;;;;24.80;65.60;101085.56;5000680;28;4151;-63
2022/08/21 01:17:49;;;;;;;;;;;;;;;24.81;65.71;101086.34;4994633;28;5459;-62
2022/08/21 01:20:16;;;;;;;;;;;;;;;24.82;65.83;101096.50;4995537;28;4059;-63
2022/08/21 01:22:42;;;;;;;;;;;;;;;24.81;66.36;101095.75;4998643;28;4300;-62
2022/08/21 01:25:09;;;;;;;;;;;;;;;24.81;66.10;101089.97;4999540;28;4311;-62
2022/08/21 01:27:38;;;;;;;;;;;;;;;24.81;65.97;101097.91;4998635;28;5252;-62
2022/08/21 01:30:07;;;;;;;;;;;;;;;24.80;66.14;101099.31;4996262;28;5307;-63
2022/08/21 01:35:27;;;;;;;;;;;;;;;24.79;66.50;101095.69;5675124;23;4434;-62
2022/08/21 01:37:57;;;;;;;;;;;;;;;24.79;66.71;101107.28;4969923;28;4193;-62
2022/08/21 01:40:23;;;;;;;;;;;;;;;24.79;66.88;101106.53;4975554;28;4070;-62
2022/08/21 01:42:50;;;;;;;;;;;;;;;24.79;66.91;101106.53;4978677;28;4317;-62
2022/08/21 01:45:16;;;;;;;;;;;;;;;24.79;67.14;101106.53;4975902;28;4358;-62
2022/08/21 01:47:43;;;;;;;;;;;;;;;24.79;67.20;101109.44;4980059;28;4217;-63
2022/08/21 01:50:10;;;;;;;;;;;;;;;24.77;67.20;101104.31;4979506;28;3980;-62
2022/08/21 01:52:36;;;;;;;;;;;;;;;24.79;67.14;101097.84;4977880;28;4240;-62
2022/08/21 01:55:04;;;;;;;;;;;;;;;24.77;67.07;101098.53;4978190;28;5314;-62
2022/08/21 01:57:30;;;;;;;;;;;;;;;24.78;67.31;101099.25;4979181;28;4226;-62
2022/08/21 01:59:56;;;;;;;;;;;;;;;24.78;67.24;101099.25;4973395;28;4505;-62
2022/08/21 02:02:23;;;;;;;;;;;;;;;24.78;67.25;101105.78;4979647;28;4154;-63
2022/08/21 02:04:49;;;;;;;;;;;;;;;24.78;67.07;101107.94;4978681;28;4291;-62
2022/08/21 02:07:15;;;;;;;;;;;;;;;24.78;67.17;101105.03;4978952;28;4249;-62
2022/08/21 02:09:42;;;;;;;;;;;;;;;24.78;67.08;101111.56;4978997;28;4218;-62
2022/08/21 02:12:09;;;;;;;;;;;;;;;24.77;67.04;101107.22;4979594;28;4265;-63
2022/08/21 02:14:35;;;;;;;;;;;;;;;24.78;66.88;101105.03;4976340;28;4263;-62
2022/08/21 02:17:02;;;;;;;;;;;;;;;24.77;66.84;101106.47;4978199;28;4510;-62
2022/08/21 02:19:34;;;;;;;;;;;;;;;24.77;66.87;101110.09;4978084;28;5277;-61
2022/08/21 02:22:06;;;;;;;;;;;;;;;24.77;66.97;101103.56;4979076;28;4374;-61
2022/08/21 02:24:32;;;;;;;;;;;;;;;24.77;66.81;101103.56;4977316;28;4083;-62
2022/08/21 02:26:59;;;;;;;;;;;;;;;24.76;66.64;101102.06;4978872;28;4175;-62
2022/08/21 02:29:25;;;;;;;;;;;;;;;24.76;66.83;101102.06;4976114;28;4230;-61
2022/08/21 02:31:52;;;;;;;;;;;;;;;24.76;66.67;101096.28;4979180;28;4176;-61
2022/08/21 02:34:19;;;;;;;;;;;;;;;24.76;66.69;101099.94;4975312;28;4248;-62
2022/08/21 02:36:45;;;;;;;;;;;;;;;24.76;66.55;101102.06;4975269;28;4280;-61
2022/08/21 02:39:24;;;;;;;;;;;;;;;24.76;66.55;101097.03;4976123;28;4598;-61
2022/08/21 02:41:53;;;;;;;;;;;;;;;24.76;66.48;101102.06;4976655;28;5686;-61
2022/08/21 02:44:19;;;;;;;;;;;;;;;24.75;66.37;101095.56;4975623;28;4267;-61
2022/08/21 02:46:45;;;;;;;;;;;;;;;24.75;66.35;101092.66;4976477;28;4367;-61
2022/08/21 02:49:13;;;;;;;;;;;;;;;24.75;66.36;101095.56;4977168;28;4205;-61
2022/08/21 02:51:39;;;;;;;;;;;;;;;24.76;66.44;101096.28;4976520;28;4175;-61
2022/08/21 02:54:06;;;;;;;;;;;;;;;24.74;66.14;101090.44;4975513;28;4247;-61
2022/08/21 02:56:32;;;;;;;;;;;;;;;24.75;66.20;101097.72;4976039;28;5319;-62
2022/08/21 02:58:59;;;;;;;;;;;;;;;24.75;66.17;101100.59;4974952;28;4265;-61
2022/08/21 03:01:26;;;;;;;;;;;;;;;24.74;66.09;101105.66;4990423;28;4167;-61
2022/08/21 03:03:53;;;;;;;;;;;;;;;24.74;66.04;101105.66;4975588;28;4619;-61
2022/08/21 03:06:20;;;;;;;;;;;;;;;24.73;65.84;101098.38;4976803;28;4013;-61
2022/08/21 03:08:46;;;;;;;;;;;;;;;24.74;66.04;101099.13;4973644;28;4051;-61
2022/08/21 03:11:13;;;;;;;;;;;;;;;24.74;65.97;101099.13;4974400;28;4070;-62
2022/08/21 03:13:40;;;;;;;;;;;;;;;24.73;65.84;101100.53;4973303;28;5321;-61
2022/08/21 03:16:07;;;;;;;;;;;;;;;24.73;65.83;101097.66;4972943;28;4338;-61
2022/08/21 03:18:35;;;;;;;;;;;;;;;24.74;65.78;101093.31;4974112;28;4256;-62
2022/08/21 03:21:03;;;;;;;;;;;;;;;24.74;65.71;101102.00;4975770;28;4048;-61
2022/08/21 03:23:30;;;;;;;;;;;;;;;24.73;65.74;101094.75;4967967;28;4081;-62
2022/08/21 03:25:58;;;;;;;;;;;;;;;24.73;65.55;101100.53;4972722;28;4190;-61
2022/08/21 03:28:24;;;;;;;;;;;;;;;24.72;65.74;101105.59;4974755;28;5564;-62
2022/08/21 03:30:50;;;;;;;;;;;;;;;24.72;65.88;101104.88;4976794;28;5284;-61
2022/08/21 03:33:17;;;;;;;;;;;;;;;24.73;65.69;101103.44;4978096;28;4152;-61
2022/08/21 03:35:47;;;;;;;;;;;;;;;24.72;65.58;101102.69;4976912;28;4275;-61
2022/08/21 03:38:13;;;;;;;;;;;;;;;24.71;65.54;101101.22;4995404;28;5523;-61
2022/08/21 03:40:40;;;;;;;;;;;;;;;24.71;65.66;101101.22;4977066;28;4247;-61
2022/08/21 03:43:08;;;;;;;;;;;;;;;24.71;65.55;101097.56;4979574;28;5539;-61
2022/08/21 03:45:35;;;;;;;;;;;;;;;24.70;65.43;101096.13;4977504;28;4099;-61
2022/08/21 03:48:02;;;;;;;;;;;;;;;24.70;65.61;101099.75;4978840;28;4199;-61
2022/08/21 03:50:29;;;;;;;;;;;;;;;24.71;65.33;101103.38;4979760;28;4308;-61
2022/08/21 03:52:57;;;;;;;;;;;;;;;24.70;65.57;101102.63;4976774;28;4129;-61
2022/08/21 03:55:23;;;;;;;;;;;;;;;24.66;65.22;101106.13;4980353;28;4182;-61
2022/08/21 03:57:50;;;;;;;;;;;;;;;24.70;65.21;101099.00;4975320;28;5290;-61
2022/08/21 04:00:16;;;;;;;;;;;;;;;24.69;65.21;101097.50;4977377;28;5440;-61
2022/08/21 04:02:43;;;;;;;;;;;;;;;24.67;65.33;101093.16;4977515;28;5414;-61
2022/08/21 04:05:10;;;;;;;;;;;;;;;24.68;65.34;101102.56;4975105;28;4280;-61
2022/08/21 04:07:36;;;;;;;;;;;;;;;24.67;65.10;101107.63;4976396;28;4360;-61
2022/08/21 04:10:03;;;;;;;;;;;;;;;24.69;65.18;101112.00;4978525;28;4071;-61
2022/08/21 04:12:30;;;;;;;;;;;;;;;24.67;64.81;101107.63;4976215;28;4188;-61
2022/08/21 04:14:56;;;;;;;;;;;;;;;24.67;65.02;101118.47;4976286;28;4244;-61
2022/08/21 04:17:23;;;;;;;;;;;;;;;24.67;64.87;101107.63;4975929;28;4278;-61
2022/08/21 04:19:49;;;;;;;;;;;;;;;24.67;64.88;101119.22;4977418;28;4462;-61
2022/08/21 04:22:19;;;;;;;;;;;;;;;24.66;64.79;101123.50;4977384;28;4090;-61
2022/08/21 04:24:45;;;;;;;;;;;;;;;24.66;64.84;101123.50;4976934;28;4212;-61
2022/08/21 04:27:12;;;;;;;;;;;;;;;24.66;64.87;101116.97;4976566;28;5542;-61
2022/08/21 04:29:38;;;;;;;;;;;;;;;24.65;64.99;101119.13;4975861;28;4302;-61
2022/08/21 04:32:05;;;;;;;;;;;;;;;24.64;64.78;101114.75;4978450;28;4131;-61
2022/08/21 04:34:32;;;;;;;;;;;;;;;24.65;64.90;101106.81;4974980;28;4294;-61
2022/08/21 04:36:58;;;;;;;;;;;;;;;24.65;64.86;101109.72;4973424;28;4204;-61
2022/08/21 04:39:24;;;;;;;;;;;;;;;24.63;64.65;101116.16;4972775;28;4645;-61
2022/08/21 04:41:55;;;;;;;;;;;;;;;24.63;64.56;101113.28;4977311;28;5328;-61
2022/08/21 04:44:21;;;;;;;;;;;;;;;24.63;64.57;101110.38;4976566;28;4487;-60
2022/08/21 04:46:47;;;;;;;;;;;;;;;24.63;64.52;101115.44;4973591;28;4224;-61
2022/08/21 04:49:14;;;;;;;;;;;;;;;24.63;64.65;101113.28;4976549;28;4118;-61
2022/08/21 04:51:40;;;;;;;;;;;;;;;24.63;64.48;101124.13;4976761;28;4595;-61
2022/08/21 04:54:15;;;;;;;;;;;;;;;24.62;64.52;101132.06;4979862;28;4294;-61
2022/08/21 04:56:42;;;;;;;;;;;;;;;24.61;64.26;101133.47;4977876;28;4296;-61
2022/08/21 04:59:13;;;;;;;;;;;;;;;24.62;64.37;101134.22;4977741;28;4188;-61
2022/08/21 05:01:40;;;;;;;;;;;;;;;24.62;64.53;101129.19;4977881;28;4570;-60
2022/08/21 05:04:07;;;;;;;;;;;;;;;24.61;64.47;101130.59;4978894;28;4332;-61
2022/08/21 05:06:34;;;;;;;;;;;;;;;24.61;64.48;101133.47;4973249;28;4742;-61
2022/08/21 05:09:01;;;;;;;;;;;;;;;24.61;64.45;101139.28;4976897;28;4209;-61
2022/08/21 05:11:28;;;;;;;;;;;;;;;24.61;64.14;101132.75;4982268;28;5433;-61
2022/08/21 05:13:54;;;;;;;;;;;;;;;24.61;64.41;101135.63;4973062;28;4160;-61
2022/08/21 05:16:22;;;;;;;;;;;;;;;24.61;64.19;101138.53;4976834;28;5275;-61
2022/08/21 05:19:03;;;;;;;;;;;;;;;24.60;64.07;101134.91;4976484;28;4734;-61
2022/08/21 05:21:29;;;;;;;;;;;;;;;24.60;64.27;101143.59;4976336;28;4621;-61
2022/08/21 05:23:56;;;;;;;;;;;;;;;24.59;63.91;101142.09;4975179;28;4113;-61
2022/08/21 05:26:22;;;;;;;;;;;;;;;24.60;64.00;101137.03;4976994;28;4263;-61
2022/08/21 05:28:49;;;;;;;;;;;;;;;24.60;64.16;101155.16;4974313;28;4138;-61
2022/08/21 05:31:16;;;;;;;;;;;;;;;24.59;63.93;101150.78;4976763;28;5041;-61
2022/08/21 05:33:42;;;;;;;;;;;;;;;24.59;63.84;101144.25;4975338;28;4423;-61
2022/08/21 05:36:09;;;;;;;;;;;;;;;24.59;63.90;101142.09;4976876;28;4218;-62
2022/08/21 05:38:35;;;;;;;;;;;;;;;24.59;63.89;101147.88;4976462;28;4089;-62
2022/08/21 05:41:02;;;;;;;;;;;;;;;24.58;63.68;101152.19;4978318;28;4829;-61
2022/08/21 05:43:28;;;;;;;;;;;;;;;24.58;63.88;101155.09;4974776;28;4189;-61
2022/08/21 05:45:54;;;;;;;;;;;;;;;24.58;63.69;101152.19;4975275;28;5444;-62
2022/08/21 05:48:22;;;;;;;;;;;;;;;24.59;63.72;101150.78;4976223;28;4104;-62
2022/08/21 05:50:49;;;;;;;;;;;;;;;24.60;63.60;101160.97;4975140;28;6713;-62
2022/08/21 05:53:15;;;;;;;;;;;;;;;24.60;63.79;101160.19;4974809;28;5352;-62
2022/08/21 05:55:42;;;;;;;;;;;;;;;24.59;63.62;101171.03;4976152;28;4329;-62
2022/08/21 05:58:12;;;;;;;;;;;;;;;24.59;63.65;101159.47;4976653;28;4230;-62
2022/08/21 06:00:39;;;;;;;;;;;;;;;24.58;63.64;101166.69;4976254;28;4211;-63
2022/08/21 06:03:09;;;;;;;;;;;;;;;24.59;63.51;101164.53;4975090;28;4244;-62
2022/08/21 06:05:36;;;;;;;;;;;;;;;24.59;63.34;101162.34;4977554;28;4198;-62
2022/08/21 06:08:03;;;;;;;;;;;;;;;24.58;63.31;101160.88;4976862;28;6434;-63
2022/08/21 06:10:29;;;;;;;;;;;;;;;24.59;63.19;101159.47;4977656;28;4264;-63
2022/08/21 06:12:55;;;;;;;;;;;;;;;24.58;63.43;101166.69;4974738;28;4232;-63
2022/08/21 06:15:22;;;;;;;;;;;;;;;24.57;63.43;101173.88;4975210;28;4210;-63
2022/08/21 06:17:49;;;;;;;;;;;;;;;24.58;63.49;101169.56;4975566;28;4180;-62
2022/08/21 06:20:15;;;;;;;;;;;;;;;24.58;63.37;101163.78;4976409;28;4394;-62
2022/08/21 06:22:41;;;;;;;;;;;;;;;24.58;63.24;101163.78;4976901;28;4540;-63
2022/08/21 06:25:09;;;;;;;;;;;;;;;24.58;63.11;101166.69;4975785;28;4253;-62
2022/08/21 06:27:35;;;;;;;;;;;;;;;24.57;63.32;101159.41;4971558;28;4343;-62
2022/08/21 06:30:02;;;;;;;;;;;;;;;24.57;63.32;101156.50;4977428;28;4509;-63
2022/08/21 06:32:29;;;;;;;;;;;;;;;24.57;63.24;101159.41;4991046;28;4524;-63
2022/08/21 06:34:55;;;;;;;;;;;;;;;24.56;63.24;101155.03;4976287;28;4526;-62
2022/08/21 06:37:22;;;;;;;;;;;;;;;24.57;63.02;101162.28;4978636;28;4229;-62
2022/08/21 06:39:48;;;;;;;;;;;;;;;24.57;63.09;101168.06;4977248;28;4367;-62
2022/08/21 06:42:15;;;;;;;;;;;;;;;24.55;63.29;101170.91;4977298;28;5197;-62
2022/08/21 06:44:43;;;;;;;;;;;;;;;24.55;62.96;101165.13;4974919;28;4317;-62
2022/08/21 06:47:09;;;;;;;;;;;;;;;24.55;63.16;101168.00;4977723;28;5163;-63
2022/08/21 06:49:35;;;;;;;;;;;;;;;24.57;63.17;101167.34;4974199;28;5555;-62
2022/08/21 06:52:03;;;;;;;;;;;;;;;24.55;63.06;101165.13;4972933;28;4180;-62
2022/08/21 06:54:30;;;;;;;;;;;;;;;24.57;63.06;101173.88;4975133;28;4577;-62
2022/08/21 06:56:56;;;;;;;;;;;;;;;24.56;62.92;101166.59;4975732;28;4201;-62
2022/08/21 06:59:23;;;;;;;;;;;;;;;24.56;63.12;101171.66;4976929;28;4272;-62
2022/08/21 07:01:49;;;;;;;;;;;;;;;24.55;62.91;101176.69;4974924;28;4380;-62
2022/08/21 07:04:16;;;;;;;;;;;;;;;24.56;62.97;101160.81;4978566;28;4244;-61
2022/08/21 07:06:42;;;;;;;;;;;;;;;24.57;62.89;101167.34;4975389;28;4190;-62
2022/08/21 07:09:10;;;;;;;;;;;;;;;24.56;62.89;101165.88;4980320;28;4655;-62
2022/08/21 07:11:36;;;;;;;;;;;;;;;24.56;62.76;101160.81;4974397;28;4230;-62
2022/08/21 07:14:10;;;;;;;;;;;;;;;24.54;62.78;101157.84;4979451;28;5327;-62
2022/08/21 07:16:45;;;;;;;;;;;;;;;24.55;63.06;101162.22;4979168;28;5310;-62
2022/08/21 07:19:12;;;;;;;;;;;;;;;24.55;62.93;101153.53;4980541;28;5234;-62
2022/08/21 07:21:38;;;;;;;;;;;;;;;24.55;62.75;101150.63;4978308;28;4218;-62
2022/08/21 07:24:04;;;;;;;;;;;;;;;24.56;62.78;101148.50;4978805;28;4131;-62
2022/08/21 07:26:31;;;;;;;;;;;;;;;24.55;62.94;101159.31;4979054;28;5402;-63
2022/08/21 07:28:57;;;;;;;;;;;;;;;24.56;63.00;101154.28;4980837;28;4276;-62
2022/08/21 07:31:24;;;;;;;;;;;;;;;24.57;62.87;101149.97;4976884;28;5287;-62
2022/08/21 07:33:50;;;;;;;;;;;;;;;24.56;62.93;101149.25;4979940;28;5372;-62
2022/08/21 07:36:17;;;;;;;;;;;;;;;24.56;62.96;101154.28;4979419;28;4526;-62
2022/08/21 07:38:43;;;;;;;;;;;;;;;24.54;62.72;101152.06;4976470;28;4104;-62
2022/08/21 07:41:13;;;;;;;;;;;;;;;24.54;62.50;101152.06;4979995;28;5327;-62
2022/08/21 07:43:39;;;;;;;;;;;;;;;24.55;62.60;101149.91;4994158;28;4831;-62
2022/08/21 07:46:11;;;;;;;;;;;;;;;24.55;62.54;101152.78;4979338;28;4287;-62
2022/08/21 07:48:37;;;;;;;;;;;;;;;24.55;62.66;101153.53;4979505;28;4209;-62
2022/08/21 07:51:07;;;;;;;;;;;;;;;24.54;62.60;101157.84;4978512;28;4246;-62
2022/08/21 07:53:34;;;;;;;;;;;;;;;24.54;62.63;101152.06;4979484;28;5136;-62
2022/08/21 07:56:01;;;;;;;;;;;;;;;24.54;62.60;101154.97;4978893;28;4473;-61
2022/08/21 07:58:27;;;;;;;;;;;;;;;24.55;62.67;101158.59;4980608;28;4236;-62
2022/08/21 08:00:53;;;;;;;;;;;;;;;24.54;62.60;101152.06;4981024;28;4523;-62
2022/08/21 08:03:20;;;;;;;;;;;;;;;24.55;62.65;101152.78;4980758;28;4237;-62
2022/08/21 08:05:55;;;;;;;;;;;;;;;24.55;62.67;101144.84;4976313;28;4187;-63
2022/08/21 08:08:21;;;;;;;;;;;;;;;24.54;62.53;101145.53;4979533;28;4269;-62
2022/08/21 08:10:49;;;;;;;;;;;;;;;24.54;62.45;101145.53;4979708;28;4215;-62
2022/08/21 08:13:15;;;;;;;;;;;;;;;24.53;62.43;101136.09;4979518;28;4161;-62
2022/08/21 08:15:42;;;;;;;;;;;;;;;24.53;62.38;101138.97;4977959;28;4122;-62
2022/08/21 08:18:08;;;;;;;;;;;;;;;24.54;62.32;101140.47;4977935;28;4213;-62
2022/08/21 08:20:34;;;;;;;;;;;;;;;24.54;62.20;101134.69;4978777;28;4216;-61
2022/08/21 08:23:01;;;;;;;;;;;;;;;24.55;62.05;101129.63;4979396;28;5354;-62
2022/08/21 08:25:28;;;;;;;;;;;;;;;24.54;61.98;101134.69;4979947;28;4428;-62
2022/08/21 08:28:02;;;;;;;;;;;;;;;24.56;61.91;101142.72;4979472;28;4121;-62
2022/08/21 08:30:32;;;;;;;;;;;;;;;24.53;62.15;101144.78;4977507;28;4273;-62
2022/08/21 08:32:59;;;;;;;;;;;;;;;24.53;61.86;101138.25;4978661;28;4282;-62
2022/08/21 08:35:28;;;;;;;;;;;;;;;24.53;61.89;101141.16;4978023;28;4265;-62
2022/08/21 08:37:56;;;;;;;;;;;;;;;24.53;61.84;101146.94;4979275;28;4251;-62
2022/08/21 08:40:43;;;;;;;;;;;;;;;24.52;61.96;101149.09;4979778;28;4171;-62
2022/08/21 08:43:11;;;;;;;;;;;;;;;24.53;61.97;101156.34;4977785;28;4366;-62
2022/08/21 08:45:41;;;;;;;;;;;;;;;24.54;62.10;101157.13;4976961;28;5373;-62
2022/08/21 08:48:08;;;;;;;;;;;;;;;24.54;62.05;101162.91;4977418;28;5305;-61
2022/08/21 08:50:55;;;;;;;;;;;;;;;24.54;61.72;101157.13;4977925;28;4402;-62
2022/08/21 08:53:23;;;;;;;;;;;;;;;24.54;61.58;101160.00;4979002;28;4534;-62
2022/08/21 08:55:49;;;;;;;;;;;;;;;24.54;61.87;101163.63;4976537;28;4519;-62
2022/08/21 08:58:17;;;;;;;;;;;;;;;24.53;61.17;101156.34;4991225;28;4186;-62
2022/08/21 09:00:44;;;;;;;;;;;;;;;24.53;61.18;101144.78;4977171;28;4272;-62
2022/08/21 09:03:11;;;;;;;;;;;;;;;24.53;60.82;101150.56;4977191;28;5437;-62
2022/08/21 09:05:40;;;;;;;;;;;;;;;24.53;60.84;101153.47;4978919;28;4130;-62
2022/08/21 09:08:15;;;;;;;;;;;;;;;24.52;60.80;101140.41;4985371;28;4520;-63
2022/08/21 09:10:50;;;;;;;;;;;;;;;24.52;60.41;101142.56;4978683;28;5245;-63
2022/08/21 09:13:35;;;;;;;;;;;;;;;24.52;60.35;101137.50;4978790;28;5269;-63
2022/08/21 09:16:16;;;;;;;;;;;;;;;24.52;60.09;101140.41;4977742;28;4233;-63
2022/08/21 09:19:05;;;;;;;;;;;;;;;24.52;60.11;101149.09;4980306;28;4433;-63
2022/08/21 09:21:41;;;;;;;;;;;;;;;24.52;60.36;101143.31;4966579;28;4218;-62
2022/08/21 09:24:16;;;;;;;;;;;;;;;24.52;60.01;101143.31;4973944;28;4182;-62
2022/08/21 09:26:47;;;;;;;;;;;;;;;24.52;60.12;101136.78;4976207;28;4296;-62
2022/08/21 09:29:13;;;;;;;;;;;;;;;24.52;60.12;101149.09;4977651;28;4103;-62
2022/08/21 09:31:40;;;;;;;;;;;;;;;24.53;60.14;101141.88;4978239;28;4224;-61
2022/08/21 09:34:08;;;;;;;;;;;;;;;24.56;61.30;101149.25;4978590;28;4430;-62
2022/08/21 09:36:41;;;;;;;;;;;;;;;24.56;61.08;101149.25;4974605;28;5207;-62
2022/08/21 09:39:07;;;;;;;;;;;;;;;24.55;61.21;101136.16;4981455;28;4274;-61
2022/08/21 09:41:35;;;;;;;;;;;;;;;24.54;61.21;101143.38;4978901;28;4288;-62
2022/08/21 09:44:02;;;;;;;;;;;;;;;24.53;61.32;101144.03;4978557;28;4274;-61
2022/08/21 09:46:28;;;;;;;;;;;;;;;24.52;61.34;101143.31;4990446;28;5306;-62
2022/08/21 09:48:56;;;;;;;;;;;;;;;24.51;61.27;101141.84;4977632;28;4544;-62
2022/08/21 09:51:33;;;;;;;;;;;;;;;24.53;61.45;101138.25;4976786;28;4229;-63
2022/08/21 09:54:06;;;;;;;;;;;;;;;24.53;61.86;101138.97;4991514;28;4248;-62
2022/08/21 09:59:37;;;;;;;;;;;;;;;24.20;56.88;101146.53;4973848;28;4186;-58
2022/08/21 10:02:17;;;;;;;;;;;;;;;24.34;57.72;101134.72;4972319;28;4266;-58
2022/08/21 10:04:47;;;;;;;;;;;;;;;24.09;54.36;101144.69;4975344;28;4119;-57
2022/08/21 10:07:13;;;;;;;;;;;;;;;24.14;53.61;101142.69;4977502;28;5425;-57
2022/08/21 10:09:40;;;;;;;;;;;;;;;24.24;54.17;101146.69;4974231;28;4406;-59
2022/08/21 10:12:16;;;;;;;;;;;;;;;24.13;51.93;101147.00;4977510;28;4262;-57
2022/08/21 10:14:45;;;;;;;;;;;;;;;24.24;53.08;101140.16;4974421;28;4223;-58
2022/08/21 10:17:19;;;;;;;;;;;;;;;24.30;53.23;101139.63;4991950;28;4272;-57
2022/08/21 10:19:56;;;;;;;;;;;;;;;24.11;51.37;101136.09;4972140;28;4377;-56
2022/08/21 10:22:29;;;;;;;;;;;;;;;23.88;50.46;101133.81;4992811;28;4056;-56
2022/08/21 10:25:17;;;;;;;;;;;;;;;23.88;50.27;101136.72;4978305;28;4139;-56
2022/08/21 10:27:50;;;;;;;;;;;;;;;24.13;50.94;101126.75;4990624;28;5176;-56
2022/08/21 10:30:19;;;;;;;;;;;;;;;24.08;50.35;101137.44;4975558;28;4187;-56
2022/08/21 10:33:01;;;;;;;;;;;;;;;24.16;50.57;101126.13;4976695;28;4196;-54
2022/08/21 10:35:32;;;;;;;;;;;;;;;24.20;50.40;101120.50;4991650;28;4267;-56
2022/08/21 10:38:06;;;;;;;;;;;;;;;24.21;50.66;101127.78;4974748;28;4062;-56
2022/08/21 10:40:35;;;;;;;;;;;;;;;24.14;49.46;101131.84;4988940;28;5341;-57
2022/08/21 10:43:16;;;;;;;;;;;;;;;24.08;49.28;101125.88;4978288;28;5086;-56
2022/08/21 10:45:51;;;;;;;;;;;;;;;23.85;48.16;101133.00;4975839;28;4173;-55
2022/08/21 10:48:24;;;;;;;;;;;;;;;24.02;49.41;101122.75;4977820;28;4210;-54
2022/08/21 10:50:51;;;;;;;;;;;;;;;24.11;49.90;101130.31;4990506;28;4216;-56
2022/08/21 10:53:36;;;;;;;;;;;;;;;24.02;49.26;101122.75;4977111;28;4236;-56
2022/08/21 10:56:14;;;;;;;;;;;;;;;24.11;49.65;101127.41;4977168;28;4179;-54
2022/08/21 10:58:43;;;;;;;;;;;;;;;24.09;49.03;101124.44;4989850;28;5321;-55
2022/08/21 11:01:14;;;;;;;;;;;;;;;24.06;47.94;101134.47;4972225;28;4021;-56
2022/08/21 11:03:42;;;;;;;;;;;;;;;24.15;47.89;101133.34;4975930;28;4196;-56
2022/08/21 11:06:15;;;;;;;;;;;;;;;24.18;48.53;101129.09;4990921;28;4149;-57
2022/08/21 11:08:43;;;;;;;;;;;;;;;24.04;47.60;101131.50;4975420;28;4147;-57
2022/08/21 11:11:14;;;;;;;;;;;;;;;23.86;45.67;101125.06;4975427;28;4196;-56
2022/08/21 11:13:51;;;;;;;;;;;;;;;23.93;45.96;101126.75;4989419;28;4079;-56
2022/08/21 11:16:25;;;;;;;;;;;;;;;24.02;46.68;101122.75;4975022;28;4237;-56
2022/08/21 11:18:54;;;;;;;;;;;;;;;24.10;46.87;101125.19;4975755;28;5429;-56
2022/08/21 11:21:23;;;;;;;;;;;;;;;24.14;47.14;101131.84;4989419;28;4169;-57
2022/08/21 11:23:55;;;;;;;;;;;;;;;24.07;46.53;101121.47;4974635;28;4417;-54
2022/08/21 11:26:31;;;;;;;;;;;;;;;24.08;46.51;101120.06;4976799;28;4211;-55
2022/08/21 11:29:04;;;;;;;;;;;;;;;24.10;46.59;101114.38;4986095;28;4122;-54
2022/08/21 11:31:37;;;;;;;;;;;;;;;23.99;46.08;101121.19;4977810;28;4182;-55
2022/08/21 11:34:14;;;;;;;;;;;;;;;24.11;46.78;101118.72;4978680;28;4274;-54
2022/08/21 11:36:56;;;;;;;;;;;;;;;24.06;45.89;101122.91;4976705;28;4224;-56
2022/08/21 11:39:29;;;;;;;;;;;;;;;24.01;45.72;101122.00;4974102;28;4246;-56
2022/08/21 11:42:01;;;;;;;;;;;;;;;24.17;46.47;101121.84;4973699;28;4174;-56
2022/08/21 11:44:34;;;;;;;;;;;;;;;24.20;46.84;101114.69;4974347;28;4172;-54
2022/08/21 11:47:03;;;;;;;;;;;;;;;24.14;46.03;101111.59;4976494;28;4265;-57
2022/08/21 11:49:33;;;;;;;;;;;;;;;24.22;46.41;101111.16;4977728;28;4209;-56
2022/08/21 11:52:04;;;;;;;;;;;;;;;24.28;47.39;101110.59;4995035;28;4924;-56
2022/08/21 11:54:34;;;;;;;;;;;;;;;24.29;47.55;101097.63;4978607;28;4186;-56
2022/08/21 11:57:02;;;;;;;;;;;;;;;24.28;46.50;101107.72;4976959;28;5220;-56
2022/08/21 11:59:34;;;;;;;;;;;;;;;24.27;46.73;101109.13;4970883;28;4091;-59
2022/08/21 12:02:19;;;;;;;;;;;;;;;24.21;46.01;101110.41;4957131;28;4269;-55
2022/08/21 12:04:53;;;;;;;;;;;;;;;24.28;46.17;101099.78;4982657;28;4408;-59
2022/08/21 12:07:32;;;;;;;;;;;;;;;24.32;46.22;101107.84;4990839;28;5519;-59
2022/08/21 12:09:58;;;;;;;;;;;;;;;24.36;46.28;101096.41;4972053;28;4205;-59
2022/08/21 12:12:26;;;;;;;;;;;;;;;24.32;46.07;101104.97;4975829;28;4653;-60
2022/08/21 12:15:03;;;;;;;;;;;;;;;24.39;46.79;101103.75;4974804;28;4262;-59
2022/08/21 12:17:36;;;;;;;;;;;;;;;24.41;46.91;101084.28;4971741;28;4267;-60
2022/08/21 12:20:16;;;;;;;;;;;;;;;24.42;47.83;101087.94;4976388;28;5272;-60
2022/08/21 12:22:47;;;;;;;;;;;;;;;24.45;47.02;101089.50;4971030;28;5340;-60
2022/08/21 12:25:17;;;;;;;;;;;;;;;24.33;46.43;101092.00;4979397;28;4537;-59
2022/08/21 12:27:49;;;;;;;;;;;;;;;24.29;46.46;101094.75;4975395;28;4254;-60
2022/08/21 12:30:23;;;;;;;;;;;;;;;24.24;46.27;101088.81;4973888;28;4171;-59
2022/08/21 12:32:57;;;;;;;;;;;;;;;24.08;45.54;101096.94;4976163;28;4287;-58
2022/08/21 12:35:35;;;;;;;;;;;;;;;24.04;46.15;101091.00;4979090;28;5629;-59
2022/08/21 12:38:06;;;;;;;;;;;;;;;24.12;46.14;101085.50;4989010;28;4346;-58
2022/08/21 12:40:42;;;;;;;;;;;;;;;24.13;46.08;101081.19;4972504;28;4244;-58
2022/08/21 12:43:17;;;;;;;;;;;;;;;24.13;45.69;101092.03;4972006;28;4178;-58
2022/08/21 12:45:44;;;;;;;;;;;;;;;24.22;45.99;101088.72;4988082;28;4228;-58
2022/08/21 12:48:28;;;;;;;;;;;;;;;24.28;46.16;101079.53;4976648;28;4186;-59
2022/08/21 12:51:06;;;;;;;;;;;;;;;24.30;45.98;101078.84;4990449;28;4559;-60
2022/08/21 12:53:37;;;;;;;;;;;;;;;24.30;45.87;101087.53;4990860;28;4174;-58
2022/08/21 12:56:04;;;;;;;;;;;;;;;24.31;45.70;101086.13;4988512;28;4412;-59
2022/08/21 12:58:30;;;;;;;;;;;;;;;24.23;45.87;101077.91;4977586;28;4242;-58
2022/08/21 13:01:00;;;;;;;;;;;;;;;24.14;45.19;101079.75;4973665;28;4080;-56
2022/08/21 13:03:27;;;;;;;;;;;;;;;24.27;45.42;101074.41;4962586;28;4108;-58